Time;durP1;ratioP1;P1;durP2;ratioP2;P2;SDS_P1;SDS_P2;PMS_P1;PMS_P2;Temp;Humidity;BMP_temperature;BMP_pressure;BME280_temperature;BME280_humidity;BME280_pressure;Samples;Min_cycle;Max_cycle;Signal;HPM_P1;HPM_P2
2023/12/05 00:00:46;;;;;;;22.98;12.15;;;;;;;-146.25;100.00;52662.22;2088229;28;37250;-79
2023/12/05 00:01:48;;;;;;;23.30;13.35;;;;;;;-146.25;100.00;52658.16;2088863;28;33588;-79
2023/12/05 00:02:49;;;;;;;22.83;12.88;;;;;;;-146.25;100.00;52680.47;2090470;28;20877;-79
2023/12/05 00:03:51;;;;;;;22.17;12.90;;;;;;;-146.25;100.00;52648.00;2089574;28;33697;-79
2023/12/05 00:04:53;;;;;;;25.40;13.43;;;;;;;-146.25;100.00;52639.91;2090125;28;33589;-79
2023/12/05 00:05:55;;;;;;;23.58;13.52;;;;;;;-146.25;100.00;52656.13;2089281;28;35874;-79
2023/12/05 00:06:57;;;;;;;23.63;13.02;;;;;;;-146.25;100.00;52668.28;2089518;28;35257;-79
2023/12/05 00:07:59;;;;;;;23.30;13.35;;;;;;;-146.25;100.00;52690.59;2089323;28;29939;-79
2023/12/05 00:09:01;;;;;;;25.40;14.30;;;;;;;-146.25;100.00;52639.91;2090292;28;20080;-77
2023/12/05 00:10:03;;;;;;;24.67;14.20;;;;;;;-146.25;100.00;52710.88;2089231;28;34662;-79
2023/12/05 00:11:10;;;;;;;21.13;13.18;;;;;;;-146.25;100.00;52686.53;2089504;28;34621;-79
2023/12/05 00:12:11;;;;;;;22.67;12.15;;;;;;;-146.25;100.00;52652.06;2089274;28;33049;-79
2023/12/05 00:13:13;;;;;;;22.77;13.07;;;;;;;-146.25;100.00;52674.38;2089136;28;33042;-79
2023/12/05 00:14:15;;;;;;;28.15;13.70;;;;;;;-146.25;100.00;52674.38;2088848;28;35043;-80
2023/12/05 00:15:17;;;;;;;26.90;14.48;;;;;;;-146.25;100.00;52654.09;2088872;28;36074;-79
2023/12/05 00:16:20;;;;;;;23.92;14.63;;;;;;;-146.25;100.00;52660.19;2088308;28;35707;-80
2023/12/05 00:17:22;;;;;;;21.50;11.55;;;;;;;-146.25;100.00;52688.56;2089656;28;20195;-79
2023/12/05 00:18:25;;;;;;;23.90;14.02;;;;;;;-146.25;100.00;52660.19;2089227;28;37695;-80
2023/12/05 00:19:26;;;;;;;24.73;14.30;;;;;;;-146.25;100.00;52637.88;2088914;28;33307;-79
2023/12/05 00:20:28;;;;;;;23.90;14.13;;;;;;;-146.25;100.00;52716.97;2088498;28;32529;-80
2023/12/05 00:21:30;;;;;;;25.98;14.80;;;;;;;-146.25;100.00;52652.06;2109705;22;36537;-73
2023/12/05 00:22:32;;;;;;;27.77;15.18;;;;;;;-146.25;100.00;52670.31;2083876;28;20030;-73
2023/12/05 00:23:36;;;;;;;25.65;14.52;;;;;;;-146.25;100.00;52684.50;2080621;28;36938;-73
2023/12/05 00:24:37;;;;;;;27.45;15.80;;;;;;;-146.25;100.00;52696.69;2080207;28;36877;-72
2023/12/05 00:25:40;;;;;;;24.73;14.50;;;;;;;-146.25;100.00;52676.41;2081740;28;20050;-73
2023/12/05 00:26:41;;;;;;;28.65;14.82;;;;;;;-146.25;100.00;52658.16;2086018;28;34345;-73
2023/12/05 00:27:43;;;;;;;25.58;14.98;;;;;;;-146.25;100.00;52686.53;2089633;28;31397;-73
2023/12/05 00:28:47;;;;;;;23.80;14.35;;;;;;;-146.25;100.00;52668.28;2089771;28;20061;-72
2023/12/05 00:29:49;;;;;;;23.90;14.18;;;;;;;-146.25;100.00;52660.19;2089336;28;37817;-73
2023/12/05 00:30:51;;;;;;;24.88;13.77;;;;;;;-146.25;100.00;52692.63;2089467;28;31713;-72
2023/12/05 00:31:53;;;;;;;27.73;16.05;;;;;;;-146.25;100.00;52696.69;2089724;28;20049;-73
2023/12/05 00:32:55;;;;;;;26.23;13.93;;;;;;;-146.25;100.00;52696.69;2088361;28;38590;-72
2023/12/05 00:33:56;;;;;;;26.58;14.40;;;;;;;-146.25;100.00;52692.63;2089633;28;31563;-73
2023/12/05 00:35:01;;;;;;;26.65;15.30;;;;;;;-146.25;100.00;52678.44;2089744;28;20960;-75
2023/12/05 00:36:03;;;;;;;27.75;15.43;;;;;;;-146.25;100.00;52666.25;2089418;28;32976;-73
2023/12/05 00:37:05;;;;;;;25.95;14.68;;;;;;;-146.25;100.00;52688.56;2088310;28;33831;-71
2023/12/05 00:38:09;;;;;;;29.58;16.02;;;;;;;-146.25;100.00;52686.53;2089642;28;20952;-73
2023/12/05 00:39:11;;;;;;;27.73;15.75;;;;;;;-146.25;100.00;52652.06;2088499;28;33279;-73
2023/12/05 00:40:15;;;;;;;26.67;16.60;;;;;;;-146.25;100.00;52656.13;2088869;28;35123;-73
2023/12/05 00:41:17;;;;;;;30.25;16.92;;;;;;;-146.25;100.00;52648.00;2089312;28;21061;-74
2023/12/05 00:42:19;;;;;;;26.38;14.93;;;;;;;-146.25;100.00;52676.41;2089043;28;34680;-75
2023/12/05 00:43:24;;;;;;;28.20;16.45;;;;;;;-146.25;100.00;52680.47;2089889;28;20049;-75
2023/12/05 00:44:26;;;;;;;29.27;15.88;;;;;;;-146.25;100.00;52635.84;2089235;28;34948;-71
2023/12/05 00:45:28;;;;;;;26.08;15.40;;;;;;;-146.25;100.00;52664.22;2089155;28;38909;-74
2023/12/05 00:46:30;;;;;;;28.67;16.02;;;;;;;-146.25;100.00;52666.25;2089089;28;33410;-75
2023/12/05 00:47:32;;;;;;;27.77;15.90;;;;;;;-146.25;100.00;52664.22;2089400;28;33047;-75
2023/12/05 00:48:34;;;;;;;28.30;16.70;;;;;;;-146.25;100.00;52680.47;2088975;28;38934;-73
2023/12/05 00:49:36;;;;;;;26.67;15.70;;;;;;;-146.25;100.00;52662.22;2090189;28;20973;-72
2023/12/05 00:50:38;;;;;;;29.98;16.73;;;;;;;-146.25;100.00;52688.56;2089195;28;35646;-73
2023/12/05 00:51:44;;;;;;;26.88;15.07;;;;;;;-146.25;100.00;52652.06;2089358;28;35638;-73
2023/12/05 00:52:46;;;;;;;29.65;16.40;;;;;;;-146.25;100.00;52704.78;2092373;28;35189;-73
2023/12/05 00:53:48;;;;;;;27.80;15.90;;;;;;;-146.25;100.00;52678.44;2089128;28;37555;-73
2023/12/05 00:54:49;;;;;;;27.98;15.13;;;;;;;-146.25;100.00;52686.53;2089705;28;20049;-73
2023/12/05 00:55:51;;;;;;;29.33;17.20;;;;;;;-146.25;100.00;52704.78;2089142;28;37126;-73
2023/12/05 00:56:54;;;;;;;30.42;17.40;;;;;;;-146.25;100.00;52656.13;2089305;28;35356;-73
2023/12/05 00:57:56;;;;;;;28.90;17.15;;;;;;;-146.25;100.00;52658.16;2089490;28;20075;-71
2023/12/05 00:58:58;;;;;;;30.05;16.13;;;;;;;-146.25;100.00;52623.69;2089147;28;38249;-72
2023/12/05 00:59:59;;;;;;;29.40;17.33;;;;;;;-146.25;100.00;52666.25;2089285;28;34266;-73
2023/12/05 01:01:01;;;;;;;30.73;17.05;;;;;;;-146.25;100.00;52688.56;2089884;28;20048;-73
2023/12/05 01:02:04;;;;;;;29.02;15.80;;;;;;;-146.25;100.00;52656.13;2089282;28;36049;-73
2023/12/05 01:03:05;;;;;;;28.70;16.63;;;;;;;-146.25;100.00;52668.28;2088588;28;34621;-74
2023/12/05 01:04:07;;;;;;;30.73;17.10;;;;;;;-146.25;100.00;52700.72;2089725;28;20902;-74
2023/12/05 01:05:09;;;;;;;31.75;17.20;;;;;;;-146.25;100.00;52660.19;2089070;28;28726;-74
2023/12/05 01:06:11;;;;;;;26.98;15.93;;;;;;;-146.25;100.00;52645.97;2089228;28;33346;-74
2023/12/05 01:07:14;;;;;;;30.73;17.10;;;;;;;-146.25;100.00;52652.06;2089833;28;20152;-74
2023/12/05 01:08:16;;;;;;;29.83;16.10;;;;;;;-146.25;100.00;52686.53;2089070;28;36778;-73
2023/12/05 01:09:17;;;;;;;34.63;16.98;;;;;;;-146.25;100.00;52652.06;2088969;28;38076;-73
2023/12/05 01:10:21;;;;;;;30.17;16.80;;;;;;;-146.25;100.00;52645.97;2089223;28;20033;-74
2023/12/05 01:11:23;;;;;;;30.10;17.20;;;;;;;-146.25;100.00;52639.91;2088667;28;38124;-74
2023/12/05 01:12:25;;;;;;;37.42;19.75;;;;;;;-146.25;100.00;52660.19;2089104;28;29329;-74
2023/12/05 01:13:33;;;;;;;35.35;19.00;;;;;;;-146.25;100.00;52670.31;2089531;28;20045;-74
2023/12/05 01:14:35;;;;;;;35.10;19.05;;;;;;;-146.25;100.00;52670.31;2088813;28;36117;-74
2023/12/05 01:15:36;;;;;;;31.00;18.40;;;;;;;-146.25;100.00;52698.72;2088907;28;34348;-73
2023/12/05 01:16:45;;;;;;;28.00;16.67;;;;;;;-146.25;100.00;52668.28;2088191;28;33466;-73
2023/12/05 01:17:47;;;;;;;33.50;19.23;;;;;;;-146.25;100.00;52686.53;2088586;28;37193;-74
2023/12/05 01:18:49;;;;;;;32.72;19.48;;;;;;;-146.25;100.00;52668.28;2089057;28;33763;-73
2023/12/05 01:19:51;;;;;;;35.13;18.92;;;;;;;-146.25;100.00;52672.34;2089199;28;30151;-74
2023/12/05 01:20:52;;;;;;;33.90;18.50;;;;;;;-146.25;100.00;52654.09;2089255;28;33146;-74
2023/12/05 01:21:54;;;;;;;32.42;18.38;;;;;;;-146.25;100.00;52672.34;2089378;28;20042;-74
2023/12/05 01:22:58;;;;;;;33.58;17.58;;;;;;;-146.25;100.00;52648.00;2088818;28;37220;-73
2023/12/05 01:24:03;;;;;;;34.65;19.05;;;;;;;-146.25;100.00;52641.94;2088582;28;32408;-73
2023/12/05 01:25:07;;;;;;;31.30;19.05;;;;;;;-146.25;100.00;52660.19;2088647;28;34101;-73
2023/12/05 01:26:09;;;;;;;37.40;20.13;;;;;;;-146.25;100.00;52654.09;2083999;28;38373;-73
2023/12/05 01:27:10;;;;;;;33.33;16.92;;;;;;;-146.25;100.00;52639.91;2085775;28;20236;-74
2023/12/05 01:28:12;;;;;;;36.90;20.13;;;;;;;-146.25;100.00;52639.91;2088482;28;32343;-73
2023/12/05 01:29:15;;;;;;;35.15;20.30;;;;;;;-146.25;100.00;52662.22;2088903;28;32367;-73
2023/12/05 01:30:17;;;;;;;36.50;20.05;;;;;;;-146.25;100.00;52643.97;2089018;28;20049;-73
2023/12/05 01:31:21;;;;;;;39.35;19.83;;;;;;;-146.25;100.00;52688.56;2088364;28;37549;-74
2023/12/05 01:32:23;;;;;;;35.10;17.83;;;;;;;-146.25;100.00;52686.53;2087729;28;33075;-73
2023/12/05 01:33:25;;;;;;;39.97;21.00;;;;;;;-146.25;100.00;52680.47;2089539;28;20041;-73
2023/12/05 01:34:27;;;;;;;35.70;19.88;;;;;;;-146.25;100.00;52658.16;2089326;28;34356;-74
2023/12/05 01:35:28;;;;;;;39.85;20.08;;;;;;;-146.25;100.00;52656.13;2088787;28;34864;-73
2023/12/05 01:36:30;;;;;;;36.03;19.48;;;;;;;-146.25;100.00;52641.94;2089328;28;20048;-74
2023/12/05 01:37:32;;;;;;;38.20;20.95;;;;;;;-146.25;100.00;52676.41;2089002;28;36616;-74
2023/12/05 01:38:34;;;;;;;31.42;18.67;;;;;;;-146.25;100.00;52704.78;2089199;28;26009;-74
2023/12/05 01:39:37;;;;;;;37.67;19.98;;;;;;;-146.25;100.00;52639.91;2089647;28;20049;-74
2023/12/05 01:40:41;;;;;;;38.33;19.50;;;;;;;-146.25;100.00;52621.66;2089254;28;32821;-74
2023/12/05 01:41:43;;;;;;;38.00;20.00;;;;;;;-146.25;100.00;52686.53;2088159;28;34289;-72
2023/12/05 01:42:44;;;;;;;40.33;20.55;;;;;;;-146.25;100.00;52694.66;2088090;28;32841;-74
2023/12/05 01:43:46;;;;;;;31.63;18.10;;;;;;;-146.25;100.00;52656.13;2088374;28;34171;-74
2023/12/05 01:44:48;;;;;;;38.00;19.98;;;;;;;-146.25;100.00;52688.56;2088666;28;38067;-73
2023/12/05 01:45:50;;;;;;;36.00;18.40;;;;;;;-146.25;100.00;52660.19;2088848;28;34623;-74
2023/12/05 01:46:52;;;;;;;38.22;19.50;;;;;;;-146.25;100.00;52664.22;2088863;28;37098;-74
2023/12/05 01:47:55;;;;;;;36.47;20.35;;;;;;;-146.25;100.00;52674.38;2088907;28;20088;-74
2023/12/05 01:48:58;;;;;;;36.85;19.40;;;;;;;-146.25;100.00;52690.59;2088146;28;37490;-73
2023/12/05 01:50:04;;;;;;;36.45;19.02;;;;;;;-146.25;100.00;52694.66;2088233;28;33958;-74
2023/12/05 01:51:09;;;;;;;38.97;20.63;;;;;;;-146.25;100.00;52633.81;2087841;28;31389;-74
2023/12/05 01:52:11;;;;;;;38.38;21.13;;;;;;;-146.25;100.00;52625.72;2087595;28;39597;-73
2023/12/05 01:53:15;;;;;;;34.47;19.90;;;;;;;-146.25;100.00;52674.38;2097344;28;20036;-74
2023/12/05 01:54:16;;;;;;;36.88;20.33;;;;;;;-146.25;100.00;52652.06;2087885;28;38219;-73
2023/12/05 01:55:19;;;;;;;41.47;19.73;;;;;;;-146.25;100.00;52629.75;2088057;28;33596;-73
2023/12/05 01:56:21;;;;;;;39.50;20.33;;;;;;;-146.25;100.00;52688.56;2088061;28;36103;-73
2023/12/05 01:57:24;;;;;;;37.15;19.55;;;;;;;-146.25;100.00;52704.78;2087822;28;36845;-74
2023/12/05 01:58:27;;;;;;;39.15;20.88;;;;;;;-146.25;100.00;52664.22;2088791;28;20053;-74
2023/12/05 01:59:31;;;;;;;39.80;20.40;;;;;;;-146.25;100.00;52639.91;2089157;28;20099;-74
2023/12/05 02:00:33;;;;;;;38.67;21.35;;;;;;;-146.25;100.00;52635.84;2087909;28;35317;-73
2023/12/05 02:01:36;;;;;;;41.25;21.02;;;;;;;-146.25;100.00;52706.81;2088259;28;30910;-74
2023/12/05 02:02:39;;;;;;;38.55;21.33;;;;;;;-146.25;100.00;52660.19;2087761;28;35747;-73
2023/12/05 02:03:45;;;;;;;40.83;20.60;;;;;;;-146.25;100.00;52652.06;2088661;28;20042;-74
2023/12/05 02:04:47;;;;;;;38.38;20.52;;;;;;;-146.25;100.00;52629.75;2088516;28;36638;-73
2023/12/05 02:05:49;;;;;;;40.55;21.17;;;;;;;-146.25;100.00;52680.47;2088444;28;34309;-74
2023/12/05 02:06:52;;;;;;;39.15;19.98;;;;;;;-146.25;100.00;52652.06;2088589;28;32765;-74
2023/12/05 02:07:57;;;;;;;42.75;20.63;;;;;;;-146.25;100.00;52676.41;2089299;28;20037;-73
2023/12/05 02:09:01;;;;;;;40.80;21.50;;;;;;;-146.25;100.00;52648.00;2088966;28;20042;-74
2023/12/05 02:10:06;;;;;;;43.00;21.38;;;;;;;-146.25;100.00;52660.19;2088461;28;37577;-74
2023/12/05 02:11:08;;;;;;;41.83;21.42;;;;;;;-146.25;100.00;52656.13;2088055;28;34208;-73
2023/12/05 02:12:12;;;;;;;36.92;19.88;;;;;;;-146.25;100.00;52684.50;2088691;28;20052;-74
2023/12/05 02:13:14;;;;;;;42.38;21.48;;;;;;;-146.25;100.00;52639.91;2088420;28;37523;-74
2023/12/05 02:14:15;;;;;;;42.92;22.50;;;;;;;-146.25;100.00;52696.69;2089193;28;20160;-74
2023/12/05 02:15:18;;;;;;;40.15;19.83;;;;;;;-146.25;100.00;52680.47;2088256;28;34155;-73
2023/12/05 02:16:32;;;;;;;43.60;22.65;;;;;;;-146.25;100.00;52645.97;2088017;28;32224;-73
2023/12/05 02:18:15;;;;;;;33.78;18.02;;;;;;;-146.25;100.00;52650.03;2088049;28;34351;-74
2023/12/05 02:19:47;;;;;;;43.80;21.20;;;;;;;-146.25;100.00;52670.31;2086745;28;36761;-73
2023/12/05 02:20:59;;;;;;;39.88;21.75;;;;;;;-146.25;100.00;52631.78;2089093;28;20419;-72
2023/12/05 02:22:08;;;;;;;41.85;22.23;;;;;;;-146.25;100.00;52666.25;2088240;28;29900;-75
2023/12/05 02:23:59;;;;;;;39.10;20.00;;;;;;;-146.25;100.00;52682.47;2087465;28;36809;-73
2023/12/05 02:25:38;;;;;;;36.47;19.27;;;;;;;-146.25;100.00;52648.00;2087392;28;35270;-74
2023/12/05 02:26:59;;;;;;;38.15;19.35;;;;;;;-146.25;100.00;52672.34;2088701;28;35609;-74
2023/12/05 02:28:02;;;;;;;36.47;19.00;;;;;;;-146.25;100.00;52672.34;2088290;28;35084;-74
2023/12/05 02:29:04;;;;;;;42.00;21.08;;;;;;;-146.25;100.00;52643.97;2087427;28;34125;-74
2023/12/05 02:30:06;;;;;;;40.78;21.05;;;;;;;-146.25;100.00;52712.91;2087201;28;38003;-74
2023/12/05 02:31:08;;;;;;;38.78;19.75;;;;;;;-146.25;100.00;52680.47;2088018;28;35509;-73
2023/12/05 02:32:10;;;;;;;37.90;19.17;;;;;;;-146.25;100.00;52672.34;2088175;28;20042;-73
2023/12/05 02:33:12;;;;;;;37.97;21.48;;;;;;;-146.25;100.00;52656.13;2087892;28;37404;-74
2023/12/05 02:34:14;;;;;;;36.65;20.23;;;;;;;-146.25;100.00;52643.97;2088398;28;31188;-74
2023/12/05 02:35:16;;;;;;;43.80;22.17;;;;;;;-146.25;100.00;52682.47;2088008;28;34047;-73
2023/12/05 02:36:27;;;;;;;40.50;21.85;;;;;;;-146.25;100.00;52650.03;2087463;28;37283;-74
2023/12/05 02:37:59;;;;;;;39.33;21.80;;;;;;;-146.25;100.00;52631.78;2088809;28;20901;-73
2023/12/05 02:39:16;;;;;;;40.80;20.50;;;;;;;-146.25;100.00;52662.22;2087864;28;33258;-73
2023/12/05 02:40:38;;;;;;;41.88;21.60;;;;;;;-146.25;100.00;52670.31;2088352;28;31228;-72
2023/12/05 02:41:45;;;;;;;37.67;20.58;;;;;;;-146.25;100.00;52684.50;2087714;28;39710;-73
2023/12/05 02:42:51;;;;;;;37.92;20.55;;;;;;;-146.25;100.00;52664.22;2088647;28;20038;-73
2023/12/05 02:44:05;;;;;;;36.53;18.48;;;;;;;-146.25;100.00;52688.56;2087704;28;38647;-73
2023/12/05 02:45:16;;;;;;;37.70;20.20;;;;;;;-146.25;100.00;52694.66;2087820;28;32157;-74
2023/12/05 02:46:19;;;;;;;42.22;22.20;;;;;;;-146.25;100.00;52658.16;2088234;28;32970;-72
2023/12/05 02:47:26;;;;;;;37.25;20.65;;;;;;;-146.25;100.00;52668.28;2087711;28;34125;-74
2023/12/05 02:48:29;;;;;;;37.83;20.40;;;;;;;-146.25;100.00;52650.03;2087847;28;35441;-72
2023/12/05 02:49:31;;;;;;;37.97;21.05;;;;;;;-146.25;100.00;52670.31;2087291;28;34470;-73
2023/12/05 02:50:33;;;;;;;38.15;20.60;;;;;;;-146.25;100.00;52660.19;2087562;28;37607;-71
2023/12/05 02:51:34;;;;;;;38.83;21.15;;;;;;;-146.25;100.00;52684.50;2088861;28;30985;-74
2023/12/05 02:52:36;;;;;;;38.53;21.02;;;;;;;-146.25;100.00;52676.41;2087585;28;37011;-73
2023/12/05 02:53:39;;;;;;;37.83;19.15;;;;;;;-146.25;100.00;52672.34;2088830;28;20156;-73
2023/12/05 02:54:40;;;;;;;36.83;20.40;;;;;;;-146.25;100.00;52666.25;2087839;28;32969;-73
2023/12/05 02:55:42;;;;;;;38.45;21.48;;;;;;;-146.25;100.00;52635.84;2088340;28;35035;-74
2023/12/05 02:56:44;;;;;;;38.50;20.42;;;;;;;-146.25;100.00;52700.72;2088320;28;35360;-73
2023/12/05 02:57:48;;;;;;;40.00;21.33;;;;;;;-146.25;100.00;52662.22;2088343;28;20042;-73
2023/12/05 02:58:50;;;;;;;41.25;21.85;;;;;;;-146.25;100.00;52692.63;2087443;28;36944;-73
2023/12/05 02:59:51;;;;;;;39.97;20.75;;;;;;;-146.25;100.00;52660.19;2088064;28;30394;-73
2023/12/05 03:00:53;;;;;;;40.65;21.92;;;;;;;-146.25;100.00;52635.84;2081257;28;33005;-75
2023/12/05 03:01:55;;;;;;;40.90;21.50;;;;;;;-146.25;100.00;52712.91;2079448;28;37993;-73
2023/12/05 03:02:57;;;;;;;36.20;20.35;;;;;;;-146.25;100.00;52686.53;2079828;28;33648;-71
2023/12/05 03:03:58;;;;;;;39.80;22.25;;;;;;;-146.25;100.00;52692.63;2079959;28;37377;-73
2023/12/05 03:05:00;;;;;;;42.10;21.58;;;;;;;-146.25;100.00;52668.28;2079639;28;30858;-73
2023/12/05 03:06:02;;;;;;;37.92;20.98;;;;;;;-146.25;100.00;52664.22;2079320;28;35424;-73
2023/12/05 03:07:04;;;;;;;38.85;21.88;;;;;;;-146.25;100.00;52680.47;2079321;28;36023;-73
2023/12/05 03:08:08;;;;;;;38.90;21.42;;;;;;;-146.25;100.00;52641.94;2080171;28;37279;-74
2023/12/05 03:09:10;;;;;;;37.25;19.90;;;;;;;-146.25;100.00;52682.47;2079910;28;27565;-74
2023/12/05 03:10:11;;;;;;;42.05;22.48;;;;;;;-146.25;100.00;52643.97;2079735;28;28164;-74
2023/12/05 03:11:13;;;;;;;38.15;21.50;;;;;;;-146.25;100.00;52686.53;2079933;28;37220;-74
2023/12/05 03:12:16;;;;;;;40.15;21.50;;;;;;;-146.25;100.00;52652.06;2080388;28;20042;-74
2023/12/05 03:13:17;;;;;;;43.72;21.40;;;;;;;-146.25;100.00;52676.41;2080100;28;29632;-73
2023/12/05 03:14:21;;;;;;;38.35;21.02;;;;;;;-146.25;100.00;52672.34;2079749;28;37898;-73
2023/12/05 03:15:22;;;;;;;35.80;20.40;;;;;;;-146.25;100.00;52650.03;2079539;28;34720;-74
2023/12/05 03:16:24;;;;;;;40.30;21.38;;;;;;;-146.25;100.00;52684.50;2079171;28;34304;-74
2023/12/05 03:17:26;;;;;;;35.97;20.02;;;;;;;-146.25;100.00;52680.47;2078514;28;36504;-74
2023/12/05 03:18:28;;;;;;;38.97;20.75;;;;;;;-146.25;100.00;52680.47;2080128;28;27271;-74
2023/12/05 03:19:32;;;;;;;39.58;21.85;;;;;;;-146.25;100.00;52613.53;2079268;28;35814;-73
2023/12/05 03:20:34;;;;;;;38.70;21.60;;;;;;;-146.25;100.00;52684.50;2079452;28;35118;-74
2023/12/05 03:21:36;;;;;;;41.20;20.25;;;;;;;-146.25;100.00;52639.91;2079023;28;34078;-73
2023/12/05 03:22:38;;;;;;;39.75;22.30;;;;;;;-146.25;100.00;52678.44;2079902;28;37735;-72
2023/12/05 03:23:39;;;;;;;41.33;21.17;;;;;;;-146.25;100.00;52674.38;2079452;28;34069;-73
2023/12/05 03:24:41;;;;;;;37.53;21.27;;;;;;;-146.25;100.00;52688.56;2079274;28;37173;-73
2023/12/05 03:25:43;;;;;;;40.20;22.38;;;;;;;-146.25;100.00;52672.34;2079930;28;35351;-74
2023/12/05 03:26:45;;;;;;;40.95;21.75;;;;;;;-146.25;100.00;52643.97;2079972;28;35206;-73
2023/12/05 03:27:46;;;;;;;42.42;21.52;;;;;;;-146.25;100.00;52652.06;2079643;28;38694;-73
2023/12/05 03:28:50;;;;;;;43.10;22.35;;;;;;;-146.25;100.00;52662.22;2080955;28;20045;-73
2023/12/05 03:29:52;;;;;;;41.97;21.73;;;;;;;-146.25;100.00;52643.97;2088091;28;38069;-73
2023/12/05 03:30:53;;;;;;;37.75;21.00;;;;;;;-146.25;100.00;52674.38;2087515;28;34369;-74
2023/12/05 03:31:55;;;;;;;38.28;21.30;;;;;;;-146.25;100.00;52658.16;2088005;28;20187;-75
2023/12/05 03:32:57;;;;;;;40.15;21.10;;;;;;;-146.25;100.00;52680.47;2087884;28;34603;-72
2023/12/05 03:33:59;;;;;;;39.90;20.92;;;;;;;-146.25;100.00;52678.44;2087778;28;35197;-73
2023/12/05 03:35:01;;;;;;;39.47;22.38;;;;;;;-146.25;100.00;52664.22;2087194;28;36647;-73
2023/12/05 03:36:03;;;;;;;41.78;21.73;;;;;;;-146.25;100.00;52650.03;2087864;28;31472;-74
2023/12/05 03:37:05;;;;;;;37.88;20.55;;;;;;;-146.25;100.00;52686.53;2088646;28;20100;-73
2023/12/05 03:38:07;;;;;;;38.92;21.45;;;;;;;-146.25;100.00;52672.34;2087794;28;37437;-73
2023/12/05 03:39:08;;;;;;;38.70;20.48;;;;;;;-146.25;100.00;52641.94;2088336;28;35771;-75
2023/12/05 03:40:11;;;;;;;41.22;22.00;;;;;;;-146.25;100.00;52637.88;2087784;28;35317;-75
2023/12/05 03:41:12;;;;;;;38.90;21.00;;;;;;;-146.25;100.00;52668.28;2088223;28;36977;-75
2023/12/05 03:42:14;;;;;;;38.33;20.52;;;;;;;-146.25;100.00;52607.47;2088253;28;31983;-75
2023/12/05 03:43:16;;;;;;;43.40;23.05;;;;;;;-146.25;100.00;52672.34;2088490;28;20535;-73
2023/12/05 03:44:18;;;;;;;37.72;22.08;;;;;;;-146.25;100.00;52704.78;2088183;28;36325;-72
2023/12/05 03:45:23;;;;;;;42.20;22.25;;;;;;;-146.25;100.00;52702.75;2087147;28;33922;-75
2023/12/05 03:46:25;;;;;;;35.83;19.45;;;;;;;-146.25;100.00;52692.63;2079538;28;38700;-73
2023/12/05 03:47:26;;;;;;;40.17;22.73;;;;;;;-146.25;100.00;52684.50;2087426;28;34791;-73
2023/12/05 03:48:28;;;;;;;43.70;21.55;;;;;;;-146.25;100.00;52688.56;2087961;28;35866;-76
2023/12/05 03:49:30;;;;;;;44.63;22.65;;;;;;;-146.25;100.00;52676.41;2087903;28;36704;-75
2023/12/05 03:50:34;;;;;;;38.72;21.02;;;;;;;-146.25;100.00;52668.28;2088536;28;20875;-73
2023/12/05 03:51:36;;;;;;;40.35;23.08;;;;;;;-146.25;100.00;52704.78;2087871;28;38029;-76
2023/12/05 03:52:38;;;;;;;40.33;20.35;;;;;;;-146.25;100.00;52652.06;2088450;28;35826;-75
2023/12/05 03:53:40;;;;;;;41.92;22.48;;;;;;;-146.25;100.00;52645.97;2088595;28;20033;-75
2023/12/05 03:54:44;;;;;;;38.08;21.20;;;;;;;-146.25;100.00;52686.53;2088389;28;20041;-73
2023/12/05 03:55:45;;;;;;;42.20;22.27;;;;;;;-146.25;100.00;52670.31;2087614;28;36576;-76
2023/12/05 03:56:47;;;;;;;40.70;22.13;;;;;;;-146.25;100.00;52678.44;2088707;28;20050;-74
2023/12/05 03:57:49;;;;;;;43.72;22.75;;;;;;;-146.25;100.00;52692.63;2087790;28;36988;-75
2023/12/05 03:58:52;;;;;;;42.17;22.00;;;;;;;-146.25;100.00;52639.91;2088693;28;20805;-75
2023/12/05 03:59:54;;;;;;;38.25;21.75;;;;;;;-146.25;100.00;52658.16;2088266;28;20037;-75
2023/12/05 04:00:56;;;;;;;40.45;22.77;;;;;;;-146.25;100.00;52702.75;2087793;28;35385;-74
2023/12/05 04:01:57;;;;;;;40.30;21.80;;;;;;;-146.25;100.00;52678.44;2087969;28;34432;-74
2023/12/05 04:02:59;;;;;;;38.15;20.98;;;;;;;-146.25;100.00;52656.13;2088018;28;20042;-75
2023/12/05 04:04:01;;;;;;;36.00;20.75;;;;;;;-146.25;100.00;52682.47;2087020;28;35631;-75
2023/12/05 04:05:04;;;;;;;39.38;21.90;;;;;;;-146.25;100.00;52682.47;2087858;28;33453;-75
2023/12/05 04:06:06;;;;;;;39.65;21.30;;;;;;;-146.25;100.00;52660.19;2088830;28;20038;-74
2023/12/05 04:07:08;;;;;;;42.30;21.42;;;;;;;-146.25;100.00;52688.56;2087363;28;35837;-75
2023/12/05 04:08:10;;;;;;;40.63;22.38;;;;;;;-146.25;100.00;52696.69;2087253;28;38048;-73
2023/12/05 04:09:12;;;;;;;41.50;22.80;;;;;;;-146.25;100.00;52611.50;2088021;28;20037;-73
2023/12/05 04:10:14;;;;;;;39.83;22.33;;;;;;;-146.25;100.00;52652.06;2087886;28;36428;-74
2023/12/05 04:11:16;;;;;;;42.13;22.95;;;;;;;-146.25;100.00;52684.50;2087605;28;35326;-75
2023/12/05 04:12:18;;;;;;;39.83;21.55;;;;;;;-146.25;100.00;52643.97;2087866;28;35832;-72
2023/12/05 04:13:20;;;;;;;40.95;22.02;;;;;;;-146.25;100.00;52672.34;2087858;28;38590;-72
2023/12/05 04:14:29;;;;;;;41.28;21.70;;;;;;;-146.25;100.00;52613.53;2088556;28;30193;-76
2023/12/05 04:15:31;;;;;;;39.20;21.50;;;;;;;-146.25;100.00;52660.19;2087752;28;33828;-75
2023/12/05 04:16:33;;;;;;;43.67;21.67;;;;;;;-146.25;100.00;52652.06;2087975;28;34596;-75
2023/12/05 04:17:35;;;;;;;40.38;22.50;;;;;;;-146.25;100.00;52633.81;2088658;28;20041;-75
2023/12/05 04:18:37;;;;;;;38.92;21.48;;;;;;;-146.25;100.00;52654.09;2087431;28;37199;-75
2023/12/05 04:19:39;;;;;;;40.10;21.95;;;;;;;-146.25;100.00;52660.19;2088049;28;32259;-73
2023/12/05 04:20:52;;;;;;;36.00;21.75;;;;;;;-146.25;100.00;52615.56;2088593;28;20049;-76
2023/12/05 04:21:54;;;;;;;39.47;21.98;;;;;;;-146.25;100.00;52656.13;2087736;28;38224;-75
2023/12/05 04:22:57;;;;;;;36.85;21.17;;;;;;;-146.25;100.00;52678.44;2088288;28;20046;-75
2023/12/05 04:24:00;;;;;;;36.42;20.08;;;;;;;-146.25;100.00;52682.47;2087590;28;37050;-75
2023/12/05 04:25:03;;;;;;;40.08;22.50;;;;;;;-146.25;100.00;52666.25;2087239;28;33444;-75
2023/12/05 04:26:06;;;;;;;44.22;21.92;;;;;;;-146.25;100.00;52654.09;2088303;28;20038;-75
2023/12/05 04:27:08;;;;;;;36.45;18.25;;;;;;;-146.25;100.00;52654.09;2088008;28;36793;-75
2023/12/05 04:28:10;;;;;;;43.10;21.25;;;;;;;-146.25;100.00;52658.16;2087977;28;30925;-75
2023/12/05 04:29:12;;;;;;;38.60;21.13;;;;;;;-146.25;100.00;52666.25;2088289;28;20823;-74
2023/12/05 04:30:14;;;;;;;38.28;21.20;;;;;;;-146.25;100.00;52652.06;2087420;28;36378;-75
2023/12/05 04:31:16;;;;;;;40.50;21.90;;;;;;;-146.25;100.00;52680.47;2087313;28;33835;-75
2023/12/05 04:32:21;;;;;;;34.90;20.50;;;;;;;-146.25;100.00;52652.06;2088077;28;32676;-75
2023/12/05 04:33:23;;;;;;;39.28;22.48;;;;;;;-146.25;100.00;52688.56;2087734;28;37278;-74
2023/12/05 04:34:25;;;;;;;33.38;19.90;;;;;;;-146.25;100.00;52654.09;2088126;28;22513;-76
2023/12/05 04:35:27;;;;;;;36.80;21.65;;;;;;;-146.25;100.00;52676.41;2087923;28;20034;-75
2023/12/05 04:36:29;;;;;;;39.67;21.25;;;;;;;-146.25;100.00;52670.31;2087975;28;35408;-75
2023/12/05 04:37:31;;;;;;;40.22;21.75;;;;;;;-146.25;100.00;52678.44;2087895;28;35545;-75
2023/12/05 04:38:35;;;;;;;38.60;20.35;;;;;;;-146.25;100.00;52641.94;2087844;28;32231;-74
2023/12/05 04:39:37;;;;;;;38.58;21.27;;;;;;;-146.25;100.00;52676.41;2087427;28;27639;-75
2023/12/05 04:40:38;;;;;;;36.67;19.90;;;;;;;-146.25;100.00;52670.31;2087991;28;35493;-75
2023/12/05 04:41:42;;;;;;;38.70;22.08;;;;;;;-146.25;100.00;52684.50;2087706;28;34459;-75
2023/12/05 04:42:45;;;;;;;39.40;21.55;;;;;;;-146.25;100.00;52654.09;2088248;28;20156;-75